sensor_id;sensor_type;location;lat;lon;timestamp;pressure;altitude;pressure_sealevel;temperature
79172;BMP280;68597;53.238;-1.418;2023-04-03T00:01:10;102440.88;;;3.30
79172;BMP280;68597;53.238;-1.418;2023-04-03T00:03:36;102438.63;;;3.25
79172;BMP280;68597;53.238;-1.418;2023-04-03T00:06:02;102412.28;;;3.04
79172;BMP280;68597;53.238;-1.418;2023-04-03T00:08:28;102436.47;;;3.16
79172;BMP280;68597;53.238;-1.418;2023-04-03T00:10:53;102444.41;;;3.14
79172;BMP280;68597;53.238;-1.418;2023-04-03T00:13:19;102445.25;;;3.11
79172;BMP280;68597;53.238;-1.418;2023-04-03T00:15:46;102444.56;;;3.07
79172;BMP280;68597;53.238;-1.418;2023-04-03T00:18:12;102438.69;;;3.05
79172;BMP280;68597;53.238;-1.418;2023-04-03T00:20:37;102433.38;;;2.94
79172;BMP280;68597;53.238;-1.418;2023-04-03T00:23:03;102432.97;;;2.96
79172;BMP280;68597;53.238;-1.418;2023-04-03T00:25:28;102439.03;;;2.91
79172;BMP280;68597;53.238;-1.418;2023-04-03T00:27:54;102446.53;;;2.90
79172;BMP280;68597;53.238;-1.418;2023-04-03T00:30:22;102427.75;;;2.82
79172;BMP280;68597;53.238;-1.418;2023-04-03T00:32:51;102435.53;;;2.87
79172;BMP280;68597;53.238;-1.418;2023-04-03T00:35:18;102437.59;;;2.83
79172;BMP280;68597;53.238;-1.418;2023-04-03T00:37:44;102440.00;;;2.81
79172;BMP280;68597;53.238;-1.418;2023-04-03T00:40:11;102414.78;;;2.63
79172;BMP280;68597;53.238;-1.418;2023-04-03T00:42:37;102430.22;;;2.76
79172;BMP280;68597;53.238;-1.418;2023-04-03T00:45:26;102438.94;;;2.75
79172;BMP280;68597;53.238;-1.418;2023-04-03T00:47:54;102442.19;;;2.70
79172;BMP280;68597;53.238;-1.418;2023-04-03T00:50:19;102441.84;;;2.68
79172;BMP280;68597;53.238;-1.418;2023-04-03T00:52:45;102441.47;;;2.66
79172;BMP280;68597;53.238;-1.418;2023-04-03T00:55:11;102441.91;;;2.64
79172;BMP280;68597;53.238;-1.418;2023-04-03T00:57:37;102439.25;;;2.61
79172;BMP280;68597;53.238;-1.418;2023-04-03T01:00:07;102441.66;;;2.59
79172;BMP280;68597;53.238;-1.418;2023-04-03T01:02:33;102442.50;;;2.56
79172;BMP280;68597;53.238;-1.418;2023-04-03T01:05:01;102444.47;;;2.55
79172;BMP280;68597;53.238;-1.418;2023-04-03T01:07:29;102436.38;;;2.44
79172;BMP280;68597;53.238;-1.418;2023-04-03T01:09:57;102440.66;;;2.49
79172;BMP280;68597;53.238;-1.418;2023-04-03T01:12:24;102450.50;;;2.50
79172;BMP280;68597;53.238;-1.418;2023-04-03T01:14:52;102439.50;;;2.46
79172;BMP280;68597;53.238;-1.418;2023-04-03T01:17:27;102438.81;;;2.42
79172;BMP280;68597;53.238;-1.418;2023-04-03T01:20:12;102444.31;;;2.42
79172;BMP280;68597;53.238;-1.418;2023-04-03T01:22:46;102434.13;;;2.39
79172;BMP280;68597;53.238;-1.418;2023-04-03T01:25:16;102425.56;;;2.34
79172;BMP280;68597;53.238;-1.418;2023-04-03T01:27:42;102431.84;;;2.34
79172;BMP280;68597;53.238;-1.418;2023-04-03T01:30:08;102433.41;;;2.35
79172;BMP280;68597;53.238;-1.418;2023-04-03T01:32:37;102417.09;;;2.25
79172;BMP280;68597;53.238;-1.418;2023-04-03T01:35:02;102427.53;;;2.33
79172;BMP280;68597;53.238;-1.418;2023-04-03T01:37:28;102424.00;;;2.33
79172;BMP280;68597;53.238;-1.418;2023-04-03T01:39:54;102427.19;;;2.31
79172;BMP280;68597;53.238;-1.418;2023-04-03T01:42:19;102425.63;;;2.30
79172;BMP280;68597;53.238;-1.418;2023-04-03T01:44:46;102419.00;;;2.28
79172;BMP280;68597;53.238;-1.418;2023-04-03T01:47:12;102415.63;;;2.20
79172;BMP280;68597;53.238;-1.418;2023-04-03T01:49:40;102426.16;;;2.25
79172;BMP280;68597;53.238;-1.418;2023-04-03T01:52:06;102414.75;;;2.23
79172;BMP280;68597;53.238;-1.418;2023-04-03T01:54:32;102418.72;;;2.22
79172;BMP280;68597;53.238;-1.418;2023-04-03T01:56:57;102419.56;;;2.19
79172;BMP280;68597;53.238;-1.418;2023-04-03T01:59:23;102429.03;;;2.18
79172;BMP280;68597;53.238;-1.418;2023-04-03T02:01:50;102421.97;;;2.17
79172;BMP280;68597;53.238;-1.418;2023-04-03T02:04:15;102426.69;;;2.17
79172;BMP280;68597;53.238;-1.418;2023-04-03T02:06:42;102421.25;;;2.13
79172;BMP280;68597;53.238;-1.418;2023-04-03T02:09:08;102420.06;;;2.14
79172;BMP280;68597;53.238;-1.418;2023-04-03T02:11:33;102422.44;;;2.12
79172;BMP280;68597;53.238;-1.418;2023-04-03T02:13:59;102418.13;;;2.11
79172;BMP280;68597;53.238;-1.418;2023-04-03T02:16:24;102415.00;;;2.09
79172;BMP280;68597;53.238;-1.418;2023-04-03T02:18:50;102396.31;;;1.97
79172;BMP280;68597;53.238;-1.418;2023-04-03T02:21:15;102412.69;;;2.07
79172;BMP280;68597;53.238;-1.418;2023-04-03T02:23:42;102414.66;;;2.07
79172;BMP280;68597;53.238;-1.418;2023-04-03T02:26:09;102413.59;;;2.01
79172;BMP280;68597;53.238;-1.418;2023-04-03T02:28:35;102411.16;;;2.03
79172;BMP280;68597;53.238;-1.418;2023-04-03T02:31:02;102409.63;;;2.02
79172;BMP280;68597;53.238;-1.418;2023-04-03T02:33:29;102404.25;;;1.95
79172;BMP280;68597;53.238;-1.418;2023-04-03T02:35:55;102401.81;;;1.97
79172;BMP280;68597;53.238;-1.418;2023-04-03T02:38:21;102411.66;;;1.98
79172;BMP280;68597;53.238;-1.418;2023-04-03T02:40:49;102405.81;;;1.96
79172;BMP280;68597;53.238;-1.418;2023-04-03T02:43:15;102408.19;;;1.94
79172;BMP280;68597;53.238;-1.418;2023-04-03T02:45:40;102412.13;;;1.93
79172;BMP280;68597;53.238;-1.418;2023-04-03T02:48:06;102413.00;;;1.90
79172;BMP280;68597;53.238;-1.418;2023-04-03T02:50:33;102415.75;;;1.90
79172;BMP280;68597;53.238;-1.418;2023-04-03T02:52:59;102398.97;;;1.81
79172;BMP280;68597;53.238;-1.418;2023-04-03T02:55:24;102410.22;;;1.90
79172;BMP280;68597;53.238;-1.418;2023-04-03T02:57:54;102421.66;;;1.88
79172;BMP280;68597;53.238;-1.418;2023-04-03T03:00:20;102404.50;;;1.81
79172;BMP280;68597;53.238;-1.418;2023-04-03T03:02:45;102410.78;;;1.81
79172;BMP280;68597;53.238;-1.418;2023-04-03T03:05:11;102410.72;;;1.85
79172;BMP280;68597;53.238;-1.418;2023-04-03T03:07:36;102417.44;;;1.84
79172;BMP280;68597;53.238;-1.418;2023-04-03T03:10:02;102410.00;;;1.81
79172;BMP280;68597;53.238;-1.418;2023-04-03T03:12:28;102386.22;;;1.67
79172;BMP280;68597;53.238;-1.418;2023-04-03T03:14:56;102405.34;;;1.78
79172;BMP280;68597;53.238;-1.418;2023-04-03T03:17:22;102409.28;;;1.77
79172;BMP280;68597;53.238;-1.418;2023-04-03T03:19:47;102399.88;;;1.74
79172;BMP280;68597;53.238;-1.418;2023-04-03T03:22:13;102399.22;;;1.66
79172;BMP280;68597;53.238;-1.418;2023-04-03T03:24:38;102412.53;;;1.72
79172;BMP280;68597;53.238;-1.418;2023-04-03T03:27:04;102409.41;;;1.70
79172;BMP280;68597;53.238;-1.418;2023-04-03T03:29:30;102408.63;;;1.69
79172;BMP280;68597;53.238;-1.418;2023-04-03T03:31:57;102396.13;;;1.64
79172;BMP280;68597;53.238;-1.418;2023-04-03T03:34:22;102397.66;;;1.65
79172;BMP280;68597;53.238;-1.418;2023-04-03T03:36:48;102396.13;;;1.64
79172;BMP280;68597;53.238;-1.418;2023-04-03T03:39:13;102391.50;;;1.58
79172;BMP280;68597;53.238;-1.418;2023-04-03T03:41:39;102384.84;;;1.55
79172;BMP280;68597;53.238;-1.418;2023-04-03T03:44:05;102392.66;;;1.60
79172;BMP280;68597;53.238;-1.418;2023-04-03T03:46:32;102382.94;;;1.52
79172;BMP280;68597;53.238;-1.418;2023-04-03T03:48:59;102397.00;;;1.58
79172;BMP280;68597;53.238;-1.418;2023-04-03T03:51:25;102398.97;;;1.57
79172;BMP280;68597;53.238;-1.418;2023-04-03T03:53:50;102391.56;;;1.54
79172;BMP280;68597;53.238;-1.418;2023-04-03T03:56:18;102391.59;;;1.51
79172;BMP280;68597;53.238;-1.418;2023-04-03T03:58:45;102383.03;;;1.45
79172;BMP280;68597;53.238;-1.418;2023-04-03T04:01:11;102383.03;;;1.45
79172;BMP280;68597;53.238;-1.418;2023-04-03T04:03:41;102393.22;;;1.48
79172;BMP280;68597;53.238;-1.418;2023-04-03T04:06:10;102404.22;;;1.48
79172;BMP280;68597;53.238;-1.418;2023-04-03T04:08:36;102397.56;;;1.46
79172;BMP280;68597;53.238;-1.418;2023-04-03T04:11:05;102391.28;;;1.45
79172;BMP280;68597;53.238;-1.418;2023-04-03T04:13:31;102393.66;;;1.43
79172;BMP280;68597;53.238;-1.418;2023-04-03T04:15:57;102385.47;;;1.40
79172;BMP280;68597;53.238;-1.418;2023-04-03T04:18:23;102394.88;;;1.42
79172;BMP280;68597;53.238;-1.418;2023-04-03T04:20:48;102398.81;;;1.41
79172;BMP280;68597;53.238;-1.418;2023-04-03T04:23:18;102375.44;;;1.30
79172;BMP280;68597;53.238;-1.418;2023-04-03T04:25:44;102384.81;;;1.32
79172;BMP280;68597;53.238;-1.418;2023-04-03T04:28:10;102395.78;;;1.36
79172;BMP280;68597;53.238;-1.418;2023-04-03T04:30:35;102395.78;;;1.36
79172;BMP280;68597;53.238;-1.418;2023-04-03T04:33:02;102387.91;;;1.34
79172;BMP280;68597;53.238;-1.418;2023-04-03T04:35:29;102384.50;;;1.27
79172;BMP280;68597;53.238;-1.418;2023-04-03T04:37:55;102387.22;;;1.30
79172;BMP280;68597;53.238;-1.418;2023-04-03T04:40:22;102392.75;;;1.30
79172;BMP280;68597;53.238;-1.418;2023-04-03T04:42:48;102390.38;;;1.29
79172;BMP280;68597;53.238;-1.418;2023-04-03T04:45:14;102390.38;;;1.29
79172;BMP280;68597;53.238;-1.418;2023-04-03T04:47:42;102378.59;;;1.28
79172;BMP280;68597;53.238;-1.418;2023-04-03T04:50:09;102386.84;;;1.28
79172;BMP280;68597;53.238;-1.418;2023-04-03T04:52:35;102382.53;;;1.27
79172;BMP280;68597;53.238;-1.418;2023-04-03T04:55:01;102374.03;;;1.18
79172;BMP280;68597;53.238;-1.418;2023-04-03T04:57:28;102378.22;;;1.26
79172;BMP280;68597;53.238;-1.418;2023-04-03T04:59:56;102383.38;;;1.24
79172;BMP280;68597;53.238;-1.418;2023-04-03T05:02:21;102373.94;;;1.25
79172;BMP280;68597;53.238;-1.418;2023-04-03T05:04:47;102384.16;;;1.24
79172;BMP280;68597;53.238;-1.418;2023-04-03T05:07:18;102377.88;;;1.24
79172;BMP280;68597;53.238;-1.418;2023-04-03T05:09:44;102377.91;;;1.20
79172;BMP280;68597;53.238;-1.418;2023-04-03T05:12:11;102376.31;;;1.23
79172;BMP280;68597;53.238;-1.418;2023-04-03T05:14:44;102387.31;;;1.23
79172;BMP280;68597;53.238;-1.418;2023-04-03T05:17:10;102394.81;;;1.22
79172;BMP280;68597;53.238;-1.418;2023-04-03T05:19:39;102390.91;;;1.20
79172;BMP280;68597;53.238;-1.418;2023-04-03T05:22:06;102381.19;;;1.12
79172;BMP280;68597;53.238;-1.418;2023-04-03T05:24:32;102395.22;;;1.21
79172;BMP280;68597;53.238;-1.418;2023-04-03T05:26:58;102396.78;;;1.22
79172;BMP280;68597;53.238;-1.418;2023-04-03T05:29:24;102394.50;;;1.17
79172;BMP280;68597;53.238;-1.418;2023-04-03T05:31:51;102403.84;;;1.23
79172;BMP280;68597;53.238;-1.418;2023-04-03T05:34:16;102392.41;;;1.24
79172;BMP280;68597;53.238;-1.418;2023-04-03T05:36:43;102382.28;;;1.18
79172;BMP280;68597;53.238;-1.418;2023-04-03T05:39:10;102391.66;;;1.24
79172;BMP280;68597;53.238;-1.418;2023-04-03T05:41:38;102408.16;;;1.24
79172;BMP280;68597;53.238;-1.418;2023-04-03T05:44:04;102395.22;;;1.21
79172;BMP280;68597;53.238;-1.418;2023-04-03T05:46:30;102404.63;;;1.23
79172;BMP280;68597;53.238;-1.418;2023-04-03T05:48:59;102414.84;;;1.23
79172;BMP280;68597;53.238;-1.418;2023-04-03T05:51:34;102420.34;;;1.23
79172;BMP280;68597;53.238;-1.418;2023-04-03T05:54:10;102407.00;;;1.21
79172;BMP280;68597;53.238;-1.418;2023-04-03T05:56:38;102410.53;;;1.22
79172;BMP280;68597;53.238;-1.418;2023-04-03T05:59:04;102408.56;;;1.22
79172;BMP280;68597;53.238;-1.418;2023-04-03T06:01:29;102418.72;;;1.25
79172;BMP280;68597;53.238;-1.418;2023-04-03T06:03:56;102414.00;;;1.26
79172;BMP280;68597;53.238;-1.418;2023-04-03T06:06:23;102405.34;;;1.28
79172;BMP280;68597;53.238;-1.418;2023-04-03T06:08:50;102423.34;;;1.32
79172;BMP280;68597;53.238;-1.418;2023-04-03T06:11:16;102421.31;;;1.36
79172;BMP280;68597;53.238;-1.418;2023-04-03T06:13:41;102406.06;;;1.32
79172;BMP280;68597;53.238;-1.418;2023-04-03T06:16:08;102427.84;;;1.46
79172;BMP280;68597;53.238;-1.418;2023-04-03T06:18:34;102419.53;;;1.49
79172;BMP280;68597;53.238;-1.418;2023-04-03T06:21:00;102426.50;;;1.57
79172;BMP280;68597;53.238;-1.418;2023-04-03T06:23:27;102408.38;;;1.60
79172;BMP280;68597;53.238;-1.418;2023-04-03T06:25:52;102429.53;;;1.66
79172;BMP280;68597;53.238;-1.418;2023-04-03T06:28:18;102407.94;;;1.61
79172;BMP280;68597;53.238;-1.418;2023-04-03T06:30:43;102421.09;;;1.77
79172;BMP280;68597;53.238;-1.418;2023-04-03T06:33:09;102420.19;;;1.84
79172;BMP280;68597;53.238;-1.418;2023-04-03T06:35:34;102413.00;;;1.90
79172;BMP280;68597;53.238;-1.418;2023-04-03T06:38:00;102409.88;;;1.88
79172;BMP280;68597;53.238;-1.418;2023-04-03T06:40:28;102416.69;;;2.03
79172;BMP280;68597;53.238;-1.418;2023-04-03T06:42:53;102423.63;;;2.11
79172;BMP280;68597;53.238;-1.418;2023-04-03T06:45:19;102421.97;;;2.17
79172;BMP280;68597;53.238;-1.418;2023-04-03T06:47:45;102405.53;;;2.10
79172;BMP280;68597;53.238;-1.418;2023-04-03T06:50:11;102422.53;;;2.28
79172;BMP280;68597;53.238;-1.418;2023-04-03T06:52:37;102412.97;;;2.33
79172;BMP280;68597;53.238;-1.418;2023-04-03T06:55:03;102415.69;;;2.36
79172;BMP280;68597;53.238;-1.418;2023-04-03T06:57:30;102422.91;;;2.50
79172;BMP280;68597;53.238;-1.418;2023-04-03T06:59:55;102409.53;;;2.48
79172;BMP280;68597;53.238;-1.418;2023-04-03T07:02:21;102408.56;;;2.59
79172;BMP280;68597;53.238;-1.418;2023-04-03T07:04:46;102402.34;;;2.55
79172;BMP280;68597;53.238;-1.418;2023-04-03T07:07:12;102422.38;;;2.75
79172;BMP280;68597;53.238;-1.418;2023-04-03T07:09:37;102421.41;;;2.85
79172;BMP280;68597;53.238;-1.418;2023-04-03T07:12:03;102415.63;;;2.95
79172;BMP280;68597;53.238;-1.418;2023-04-03T07:14:30;102420.41;;;3.11
79172;BMP280;68597;53.238;-1.418;2023-04-03T07:16:55;102427.19;;;3.43
79172;BMP280;68597;53.238;-1.418;2023-04-03T07:19:21;102425.13;;;3.63
79172;BMP280;68597;53.238;-1.418;2023-04-03T07:21:46;102423.91;;;3.80
79172;BMP280;68597;53.238;-1.418;2023-04-03T07:24:12;102415.22;;;4.10
79172;BMP280;68597;53.238;-1.418;2023-04-03T07:26:38;102415.97;;;4.40
79172;BMP280;68597;53.238;-1.418;2023-04-03T07:29:03;102418.59;;;4.72
79172;BMP280;68597;53.238;-1.418;2023-04-03T07:31:30;102427.31;;;5.08
79172;BMP280;68597;53.238;-1.418;2023-04-03T07:33:55;102390.34;;;5.15
79172;BMP280;68597;53.238;-1.418;2023-04-03T07:36:22;102424.34;;;5.53
79172;BMP280;68597;53.238;-1.418;2023-04-03T07:38:48;102422.78;;;5.74
79172;BMP280;68597;53.238;-1.418;2023-04-03T07:41:15;102425.91;;;6.10
79172;BMP280;68597;53.238;-1.418;2023-04-03T07:43:41;102428.28;;;6.43
79172;BMP280;68597;53.238;-1.418;2023-04-03T07:46:06;102427.19;;;6.71
79172;BMP280;68597;53.238;-1.418;2023-04-03T07:48:33;102425.44;;;6.95
79172;BMP280;68597;53.238;-1.418;2023-04-03T07:50:59;102435.97;;;7.10
79172;BMP280;68597;53.238;-1.418;2023-04-03T07:53:25;102431.41;;;7.25
79172;BMP280;68597;53.238;-1.418;2023-04-03T07:55:50;102425.25;;;7.39
79172;BMP280;68597;53.238;-1.418;2023-04-03T07:58:17;102426.81;;;7.58
79172;BMP280;68597;53.238;-1.418;2023-04-03T08:00:43;102425.94;;;7.79
79172;BMP280;68597;53.238;-1.418;2023-04-03T08:03:10;102419.72;;;7.93
79172;BMP280;68597;53.238;-1.418;2023-04-03T08:05:38;102425.59;;;8.14
79172;BMP280;68597;53.238;-1.418;2023-04-03T08:08:05;102427.41;;;8.35
79172;BMP280;68597;53.238;-1.418;2023-04-03T08:10:30;102425.78;;;8.52
79172;BMP280;68597;53.238;-1.418;2023-04-03T08:12:56;102421.38;;;8.69
79172;BMP280;68597;53.238;-1.418;2023-04-03T08:15:22;102408.50;;;8.81
79172;BMP280;68597;53.238;-1.418;2023-04-03T08:17:47;102406.13;;;8.98
79172;BMP280;68597;53.238;-1.418;2023-04-03T08:20:13;102427.22;;;9.37
79172;BMP280;68597;53.238;-1.418;2023-04-03T08:22:40;102421.16;;;9.62
79172;BMP280;68597;53.238;-1.418;2023-04-03T08:25:06;102426.78;;;9.91
79172;BMP280;68597;53.238;-1.418;2023-04-03T08:27:31;102421.72;;;10.05
79172;BMP280;68597;53.238;-1.418;2023-04-03T08:29:57;102420.47;;;10.06
79172;BMP280;68597;53.238;-1.418;2023-04-03T08:32:22;102404.75;;;9.93
79172;BMP280;68597;53.238;-1.418;2023-04-03T08:34:48;102405.41;;;9.88
79172;BMP280;68597;53.238;-1.418;2023-04-03T08:37:14;102401.34;;;9.89
79172;BMP280;68597;53.238;-1.418;2023-04-03T08:39:41;102380.41;;;9.79
79172;BMP280;68597;53.238;-1.418;2023-04-03T08:42:15;102408.69;;;10.02
79172;BMP280;68597;53.238;-1.418;2023-04-03T08:44:46;102400.63;;;10.04
79172;BMP280;68597;53.238;-1.418;2023-04-03T08:47:19;102412.72;;;10.15
79172;BMP280;68597;53.238;-1.418;2023-04-03T08:49:48;102402.91;;;10.20
79172;BMP280;68597;53.238;-1.418;2023-04-03T08:52:18;102393.69;;;10.14
79172;BMP280;68597;53.238;-1.418;2023-04-03T08:54:51;102413.78;;;10.32
79172;BMP280;68597;53.238;-1.418;2023-04-03T08:57:22;102415.50;;;10.44
79172;BMP280;68597;53.238;-1.418;2023-04-03T08:59:48;102410.38;;;10.58
79172;BMP280;68597;53.238;-1.418;2023-04-03T09:02:23;102423.63;;;10.77
79172;BMP280;68597;53.238;-1.418;2023-04-03T09:04:49;102416.69;;;10.87
79172;BMP280;68597;53.238;-1.418;2023-04-03T09:07:21;102426.69;;;10.94
79172;BMP280;68597;53.238;-1.418;2023-04-03T09:09:49;102414.13;;;10.89
79172;BMP280;68597;53.238;-1.418;2023-04-03T09:12:18;102414.00;;;10.98
79172;BMP280;68597;53.238;-1.418;2023-04-03T09:14:50;102401.03;;;11.16
79172;BMP280;68597;53.238;-1.418;2023-04-03T09:17:24;102406.53;;;11.30
79172;BMP280;68597;53.238;-1.418;2023-04-03T09:19:57;102395.97;;;11.20
79172;BMP280;68597;53.238;-1.418;2023-04-03T09:22:24;102407.03;;;11.09
79172;BMP280;68597;53.238;-1.418;2023-04-03T09:24:56;102405.19;;;10.85
79172;BMP280;68597;53.238;-1.418;2023-04-03T09:27:23;102407.41;;;10.81
79172;BMP280;68597;53.238;-1.418;2023-04-03T09:29:49;102399.81;;;11.02
79172;BMP280;68597;53.238;-1.418;2023-04-03T09:32:21;102396.31;;;11.27
79172;BMP280;68597;53.238;-1.418;2023-04-03T09:34:47;102400.72;;;11.54
79172;BMP280;68597;53.238;-1.418;2023-04-03T09:37:34;102397.06;;;11.74
79172;BMP280;68597;53.238;-1.418;2023-04-03T09:40:01;102395.25;;;11.96
79172;BMP280;68597;53.238;-1.418;2023-04-03T09:42:27;102390.13;;;12.21
79172;BMP280;68597;53.238;-1.418;2023-04-03T09:44:55;102401.72;;;12.39
79172;BMP280;68597;53.238;-1.418;2023-04-03T09:47:24;102393.91;;;12.49
79172;BMP280;68597;53.238;-1.418;2023-04-03T09:49:50;102398.47;;;12.52
79172;BMP280;68597;53.238;-1.418;2023-04-03T09:52:20;102393.31;;;12.45
79172;BMP280;68597;53.238;-1.418;2023-04-03T09:54:48;102387.25;;;12.52
79172;BMP280;68597;53.238;-1.418;2023-04-03T09:57:15;102388.94;;;12.75
79172;BMP280;68597;53.238;-1.418;2023-04-03T09:59:45;102382.47;;;13.23
79172;BMP280;68597;53.238;-1.418;2023-04-03T10:02:28;102391.00;;;13.56
79172;BMP280;68597;53.238;-1.418;2023-04-03T10:04:55;102393.84;;;13.78
79172;BMP280;68597;53.238;-1.418;2023-04-03T10:07:30;102393.56;;;13.87
79172;BMP280;68597;53.238;-1.418;2023-04-03T10:09:57;102390.50;;;13.80
79172;BMP280;68597;53.238;-1.418;2023-04-03T10:12:25;102376.19;;;13.61
79172;BMP280;68597;53.238;-1.418;2023-04-03T10:14:55;102376.91;;;13.45
79172;BMP280;68597;53.238;-1.418;2023-04-03T10:17:30;102387.13;;;13.37
79172;BMP280;68597;53.238;-1.418;2023-04-03T10:20:02;102384.56;;;13.39
79172;BMP280;68597;53.238;-1.418;2023-04-03T10:22:37;102373.56;;;13.35
79172;BMP280;68597;53.238;-1.418;2023-04-03T10:25:12;102371.78;;;13.27
79172;BMP280;68597;53.238;-1.418;2023-04-03T10:27:49;102375.09;;;13.25
79172;BMP280;68597;53.238;-1.418;2023-04-03T10:30:31;102366.75;;;13.47
79172;BMP280;68597;53.238;-1.418;2023-04-03T10:33:19;102380.00;;;13.47
79172;BMP280;68597;53.238;-1.418;2023-04-03T10:35:55;102367.47;;;13.42
79172;BMP280;68597;53.238;-1.418;2023-04-03T10:38:31;102363.88;;;13.31
79172;BMP280;68597;53.238;-1.418;2023-04-03T10:41:03;102362.03;;;13.17
79172;BMP280;68597;53.238;-1.418;2023-04-03T10:43:36;102350.34;;;13.24
79172;BMP280;68597;53.238;-1.418;2023-04-03T10:46:10;102350.66;;;13.59
79172;BMP280;68597;53.238;-1.418;2023-04-03T10:48:52;102354.47;;;14.11
79172;BMP280;68597;53.238;-1.418;2023-04-03T10:51:24;102355.47;;;14.19
79172;BMP280;68597;53.238;-1.418;2023-04-03T10:53:55;102352.97;;;13.88
79172;BMP280;68597;53.238;-1.418;2023-04-03T10:56:30;102353.72;;;13.61
79172;BMP280;68597;53.238;-1.418;2023-04-03T10:59:04;102358.03;;;13.40
79172;BMP280;68597;53.238;-1.418;2023-04-03T11:01:35;102353.19;;;13.46
79172;BMP280;68597;53.238;-1.418;2023-04-03T11:04:04;102358.09;;;13.73
79172;BMP280;68597;53.238;-1.418;2023-04-03T11:06:34;102345.78;;;14.20
79172;BMP280;68597;53.238;-1.418;2023-04-03T11:09:02;102349.72;;;14.64
79172;BMP280;68597;53.238;-1.418;2023-04-03T11:11:31;102348.31;;;14.87
79172;BMP280;68597;53.238;-1.418;2023-04-03T11:14:01;102348.63;;;14.78
79172;BMP280;68597;53.238;-1.418;2023-04-03T11:16:30;102332.59;;;14.67
79172;BMP280;68597;53.238;-1.418;2023-04-03T11:18:59;102340.47;;;14.80
79172;BMP280;68597;53.238;-1.418;2023-04-03T11:21:29;102333.19;;;14.96
79172;BMP280;68597;53.238;-1.418;2023-04-03T11:23:56;102325.91;;;15.11
79172;BMP280;68597;53.238;-1.418;2023-04-03T11:26:27;102321.19;;;15.30
79172;BMP280;68597;53.238;-1.418;2023-04-03T11:29:00;102326.69;;;15.47
79172;BMP280;68597;53.238;-1.418;2023-04-03T11:31:41;102323.41;;;15.73
79172;BMP280;68597;53.238;-1.418;2023-04-03T11:34:21;102315.28;;;15.88
79172;BMP280;68597;53.238;-1.418;2023-04-03T11:36:53;102321.97;;;15.90
79172;BMP280;68597;53.238;-1.418;2023-04-03T11:39:21;102312.03;;;15.84
79172;BMP280;68597;53.238;-1.418;2023-04-03T11:41:47;102320.72;;;15.86
79172;BMP280;68597;53.238;-1.418;2023-04-03T11:44:30;102311.38;;;16.21
79172;BMP280;68597;53.238;-1.418;2023-04-03T11:46:58;102319.19;;;16.52
79172;BMP280;68597;53.238;-1.418;2023-04-03T11:53:01;102315.41;;;17.32
79172;BMP280;68597;53.238;-1.418;2023-04-03T11:55:43;102297.78;;;17.57
79172;BMP280;68597;53.238;-1.418;2023-04-03T11:58:15;102299.31;;;17.71
79172;BMP280;68597;53.238;-1.418;2023-04-03T12:00:55;102304.53;;;17.81
79172;BMP280;68597;53.238;-1.418;2023-04-03T12:09:29;102303.91;;;16.98
79172;BMP280;68597;53.238;-1.418;2023-04-03T12:11:56;102299.34;;;16.95
79172;BMP280;68597;53.238;-1.418;2023-04-03T12:14:23;102296.63;;;17.02
79172;BMP280;68597;53.238;-1.418;2023-04-03T12:16:52;102289.09;;;16.92
79172;BMP280;68597;53.238;-1.418;2023-04-03T12:19:31;102289.09;;;16.92
79172;BMP280;68597;53.238;-1.418;2023-04-03T12:22:11;102285.16;;;16.82
79172;BMP280;68597;53.238;-1.418;2023-04-03T12:24:39;102284.25;;;16.74
79172;BMP280;68597;53.238;-1.418;2023-04-03T12:27:16;102270.09;;;16.61
79172;BMP280;68597;53.238;-1.418;2023-04-03T12:29:46;102274.34;;;16.67
79172;BMP280;68597;53.238;-1.418;2023-04-03T12:32:21;102259.28;;;16.65
79172;BMP280;68597;53.238;-1.418;2023-04-03T12:35:00;102278.66;;;16.87
79172;BMP280;68597;53.238;-1.418;2023-04-03T12:37:56;102266.63;;;16.86
79172;BMP280;68597;53.238;-1.418;2023-04-03T12:40:31;102257.41;;;16.86
79172;BMP280;68597;53.238;-1.418;2023-04-03T12:43:13;102264.78;;;16.89
79172;BMP280;68597;53.238;-1.418;2023-04-03T12:45:44;102258.13;;;16.86
79172;BMP280;68597;53.238;-1.418;2023-04-03T12:48:17;102254.63;;;16.99
79172;BMP280;68597;53.238;-1.418;2023-04-03T12:50:45;102222.22;;;16.87
79172;BMP280;68597;53.238;-1.418;2023-04-03T12:53:13;102248.38;;;17.06
79172;BMP280;68597;53.238;-1.418;2023-04-03T12:55:40;102245.22;;;17.09
79172;BMP280;68597;53.238;-1.418;2023-04-03T12:58:16;102244.38;;;17.28
79172;BMP280;68597;53.238;-1.418;2023-04-03T13:00:42;102231.81;;;17.55
79172;BMP280;68597;53.238;-1.418;2023-04-03T13:03:22;102225.59;;;17.56
79172;BMP280;68597;53.238;-1.418;2023-04-03T13:05:49;102229.53;;;17.53
79172;BMP280;68597;53.238;-1.418;2023-04-03T13:08:15;102232.78;;;17.44
79172;BMP280;68597;53.238;-1.418;2023-04-03T13:10:55;102217.78;;;17.49
79172;BMP280;68597;53.238;-1.418;2023-04-03T13:13:22;102224.84;;;17.69
79172;BMP280;68597;53.238;-1.418;2023-04-03T13:15:48;102212.13;;;17.76
79172;BMP280;68597;53.238;-1.418;2023-04-03T13:18:27;102219.16;;;17.95
79172;BMP280;68597;53.238;-1.418;2023-04-03T13:20:57;102204.28;;;17.82
79172;BMP280;68597;53.238;-1.418;2023-04-03T13:23:24;102226.34;;;17.96
79172;BMP280;68597;53.238;-1.418;2023-04-03T13:25:50;102205.88;;;17.90
79172;BMP280;68597;53.238;-1.418;2023-04-03T13:28:19;102203.19;;;17.85
79172;BMP280;68597;53.238;-1.418;2023-04-03T13:30:56;102209.72;;;17.93
79172;BMP280;68597;53.238;-1.418;2023-04-03T13:33:27;102199.03;;;18.12
79172;BMP280;68597;53.238;-1.418;2023-04-03T13:35:57;102200.69;;;18.28
79172;BMP280;68597;53.238;-1.418;2023-04-03T13:38:24;102195.03;;;18.28
79172;BMP280;68597;53.238;-1.418;2023-04-03T13:40:51;102192.84;;;18.34
79172;BMP280;68597;53.238;-1.418;2023-04-03T13:43:19;102169.25;;;18.31
79172;BMP280;68597;53.238;-1.418;2023-04-03T13:45:59;102191.53;;;18.56
79172;BMP280;68597;53.238;-1.418;2023-04-03T13:48:27;102178.75;;;18.55
79172;BMP280;68597;53.238;-1.418;2023-04-03T13:51:01;102167.41;;;18.55
79172;BMP280;68597;53.238;-1.418;2023-04-03T13:53:29;102180.97;;;18.56
79172;BMP280;68597;53.238;-1.418;2023-04-03T13:55:58;102179.88;;;18.39
79172;BMP280;68597;53.238;-1.418;2023-04-03T13:58:25;102170.56;;;18.30
79172;BMP280;68597;53.238;-1.418;2023-04-03T14:00:53;102166.63;;;18.13
79172;BMP280;68597;53.238;-1.418;2023-04-03T14:03:21;102165.97;;;18.07
79172;BMP280;68597;53.238;-1.418;2023-04-03T14:05:48;102165.31;;;18.01
79172;BMP280;68597;53.238;-1.418;2023-04-03T14:08:14;102171.06;;;18.08